Gibsonville, North Carolina
Current Conditions -  °F | °C
As of 2:54 AM on Thursday 27 Nov 2014 (Local Time) from KBUY Reporting Station
Overcast Overcast  
Wind Chill: 39°   Ceiling: 2900
Heat Index: 39°   Visibility: 8mi
Dew Point: 38°   Wind: 0mph
Humidity: 96%   Direction: NA
Pressure: 30.03"   Gusts: NA
Location:  36.11°N, 79.54°W
Report Text: KBUY 270754Z AUTO 00000KT 8SM OVC029 04/03 A3003 RMK AO2 SLP170 T00390033
Loading
Personal Weather Stations






























Interactive Weather Map New forecast layout! Learn more

10-Day Weather Forecast

Advertisements
Track Severe Weather on mobile